sensor_id;sensor_type;location;lat;lon;timestamp;pressure;altitude;pressure_sealevel;temperature;humidity
48041;BME280;33815;48.386;11.738;2024-01-30T00:01:35;97974.34;;;-3.80;100.00
48041;BME280;33815;48.386;11.738;2024-01-30T00:04:00;97979.47;;;-3.83;100.00
48041;BME280;33815;48.386;11.738;2024-01-30T00:06:26;97973.53;;;-3.84;100.00
48041;BME280;33815;48.386;11.738;2024-01-30T00:08:51;97965.22;;;-3.93;100.00
48041;BME280;33815;48.386;11.738;2024-01-30T00:11:16;97959.44;;;-4.03;100.00
48041;BME280;33815;48.386;11.738;2024-01-30T00:13:42;97951.91;;;-4.11;100.00
48041;BME280;33815;48.386;11.738;2024-01-30T00:16:07;97977.22;;;-4.02;100.00
48041;BME280;33815;48.386;11.738;2024-01-30T00:18:33;97976.38;;;-4.01;100.00
48041;BME280;33815;48.386;11.738;2024-01-30T00:20:59;97976.38;;;-4.01;100.00
48041;BME280;33815;48.386;11.738;2024-01-30T00:23:24;97955.41;;;-4.15;100.00
48041;BME280;33815;48.386;11.738;2024-01-30T00:25:50;97980.75;;;-4.09;100.00
48041;BME280;33815;48.386;11.738;2024-01-30T00:28:15;97989.34;;;-4.16;100.00
48041;BME280;33815;48.386;11.738;2024-01-30T00:30:40;97981.81;;;-4.21;100.00
48041;BME280;33815;48.386;11.738;2024-01-30T00:33:06;97973.38;;;-4.26;100.00
48041;BME280;33815;48.386;11.738;2024-01-30T00:35:31;97961.63;;;-4.33;100.00
48041;BME280;33815;48.386;11.738;2024-01-30T00:37:56;97967.53;;;-4.31;100.00
48041;BME280;33815;48.386;11.738;2024-01-30T00:40:22;97981.09;;;-4.29;100.00
48041;BME280;33815;48.386;11.738;2024-01-30T00:42:47;97968.47;;;-4.38;100.00
48041;BME280;33815;48.386;11.738;2024-01-30T00:45:16;97988.75;;;-4.32;100.00
48041;BME280;33815;48.386;11.738;2024-01-30T00:47:42;97983.78;;;-4.40;100.00
48041;BME280;33815;48.386;11.738;2024-01-30T00:50:07;97988.03;;;-4.42;100.00
48041;BME280;33815;48.386;11.738;2024-01-30T00:52:33;97951.16;;;-4.71;100.00
48041;BME280;33815;48.386;11.738;2024-01-30T00:54:59;97981.41;;;-4.52;100.00
48041;BME280;33815;48.386;11.738;2024-01-30T00:57:24;97994.91;;;-4.47;100.00
48041;BME280;33815;48.386;11.738;2024-01-30T00:59:50;97978.06;;;-4.54;100.00
48041;BME280;33815;48.386;11.738;2024-01-30T01:02:15;97982.28;;;-4.55;100.00
48041;BME280;33815;48.386;11.738;2024-01-30T01:04:42;97987.38;;;-4.55;100.00
48041;BME280;33815;48.386;11.738;2024-01-30T01:07:08;97995.03;;;-4.56;100.00
48041;BME280;33815;48.386;11.738;2024-01-30T01:09:34;97948.78;;;-4.83;100.00
48041;BME280;33815;48.386;11.738;2024-01-30T01:11:59;97976.56;;;-4.69;100.00
48041;BME280;33815;48.386;11.738;2024-01-30T01:14:24;97977.41;;;-4.69;100.00
48041;BME280;33815;48.386;11.738;2024-01-30T01:16:50;97985.88;;;-4.67;100.00
48041;BME280;33815;48.386;11.738;2024-01-30T01:19:15;97980.00;;;-4.72;100.00
48041;BME280;33815;48.386;11.738;2024-01-30T01:21:41;97969.91;;;-4.78;100.00
48041;BME280;33815;48.386;11.738;2024-01-30T01:24:06;97976.56;;;-4.69;100.00
48041;BME280;33815;48.386;11.738;2024-01-30T01:26:31;97962.34;;;-4.83;100.00
48041;BME280;33815;48.386;11.738;2024-01-30T01:28:56;97985.09;;;-4.72;100.00
48041;BME280;33815;48.386;11.738;2024-01-30T01:31:22;97956.34;;;-4.78;100.00
48041;BME280;33815;48.386;11.738;2024-01-30T01:33:49;97962.22;;;-4.73;100.00
48041;BME280;33815;48.386;11.738;2024-01-30T01:36:15;97948.00;;;-4.88;100.00
48041;BME280;33815;48.386;11.738;2024-01-30T01:38:40;97960.72;;;-4.88;100.00
48041;BME280;33815;48.386;11.738;2024-01-30T01:41:05;97934.78;;;-5.12;100.00
48041;BME280;33815;48.386;11.738;2024-01-30T01:43:30;97986.97;;;-4.85;100.00
48041;BME280;33815;48.386;11.738;2024-01-30T01:45:56;97957.41;;;-4.93;100.00
48041;BME280;33815;48.386;11.738;2024-01-30T01:48:21;97986.09;;;-4.82;100.00
48041;BME280;33815;48.386;11.738;2024-01-30T01:50:46;97967.59;;;-4.93;100.00
48041;BME280;33815;48.386;11.738;2024-01-30T01:53:12;97958.31;;;-4.97;100.00
48041;BME280;33815;48.386;11.738;2024-01-30T01:55:37;97965.09;;;-4.96;100.00
48041;BME280;33815;48.386;11.738;2024-01-30T01:58:03;97971.06;;;-4.99;100.00
48041;BME280;33815;48.386;11.738;2024-01-30T02:00:29;97959.28;;;-5.06;100.00
48041;BME280;33815;48.386;11.738;2024-01-30T02:02:55;97956.78;;;-5.11;100.00
48041;BME280;33815;48.386;11.738;2024-01-30T02:05:21;97977.88;;;-5.03;100.00
48041;BME280;33815;48.386;11.738;2024-01-30T02:07:47;97963.56;;;-5.10;100.00
48041;BME280;33815;48.386;11.738;2024-01-30T02:10:12;97965.31;;;-5.15;100.00
48041;BME280;33815;48.386;11.738;2024-01-30T02:12:38;97981.25;;;-5.02;100.00
48041;BME280;33815;48.386;11.738;2024-01-30T02:15:04;97969.47;;;-5.09;100.00
48041;BME280;33815;48.386;11.738;2024-01-30T02:17:30;97947.63;;;-5.23;100.00
48041;BME280;33815;48.386;11.738;2024-01-30T02:19:55;97974.53;;;-5.08;100.00
48041;BME280;33815;48.386;11.738;2024-01-30T02:22:21;97988.84;;;-4.99;100.00
48041;BME280;33815;48.386;11.738;2024-01-30T02:24:47;97955.19;;;-5.18;100.00
48041;BME280;33815;48.386;11.738;2024-01-30T02:27:12;97982.13;;;-5.03;100.00
48041;BME280;33815;48.386;11.738;2024-01-30T02:29:37;97993.06;;;-5.00;100.00
48041;BME280;33815;48.386;11.738;2024-01-30T02:32:03;97959.47;;;-5.23;100.00
48041;BME280;33815;48.386;11.738;2024-01-30T02:34:28;97964.56;;;-5.23;100.00
48041;BME280;33815;48.386;11.738;2024-01-30T02:36:54;97968.75;;;-5.19;100.00
48041;BME280;33815;48.386;11.738;2024-01-30T02:39:19;97951.94;;;-5.29;100.00
48041;BME280;33815;48.386;11.738;2024-01-30T02:41:45;97978.00;;;-5.15;100.00
48041;BME280;33815;48.386;11.738;2024-01-30T02:44:10;97960.41;;;-5.27;100.00
48041;BME280;33815;48.386;11.738;2024-01-30T02:46:35;97977.28;;;-5.25;100.00
48041;BME280;33815;48.386;11.738;2024-01-30T02:49:01;97964.75;;;-5.37;100.00
48041;BME280;33815;48.386;11.738;2024-01-30T02:51:26;97954.63;;;-5.43;100.00
48041;BME280;33815;48.386;11.738;2024-01-30T02:53:51;97958.81;;;-5.39;100.00
48041;BME280;33815;48.386;11.738;2024-01-30T02:56:17;97974.81;;;-5.31;100.00
48041;BME280;33815;48.386;11.738;2024-01-30T02:58:43;97959.69;;;-5.40;100.00
48041;BME280;33815;48.386;11.738;2024-01-30T03:01:08;97951.28;;;-5.45;100.00
48041;BME280;33815;48.386;11.738;2024-01-30T03:03:33;97968.94;;;-5.35;100.00
48041;BME280;33815;48.386;11.738;2024-01-30T03:06:02;97957.97;;;-5.38;100.00
48041;BME280;33815;48.386;11.738;2024-01-30T03:08:28;97937.78;;;-5.51;100.00
48041;BME280;33815;48.386;11.738;2024-01-30T03:10:53;97958.03;;;-5.41;100.00
48041;BME280;33815;48.386;11.738;2024-01-30T03:13:18;97954.56;;;-5.39;100.00
48041;BME280;33815;48.386;11.738;2024-01-30T03:15:43;97934.41;;;-5.51;100.00
48041;BME280;33815;48.386;11.738;2024-01-30T03:18:09;97953.69;;;-5.36;100.00
48041;BME280;33815;48.386;11.738;2024-01-30T03:20:34;97952.81;;;-5.34;100.00
48041;BME280;33815;48.386;11.738;2024-01-30T03:23:00;97940.22;;;-5.40;100.00
48041;BME280;33815;48.386;11.738;2024-01-30T03:25:25;97946.22;;;-5.45;100.00
48041;BME280;33815;48.386;11.738;2024-01-30T03:27:51;97957.16;;;-5.42;100.00
48041;BME280;33815;48.386;11.738;2024-01-30T03:30:16;97918.41;;;-5.58;100.00
48041;BME280;33815;48.386;11.738;2024-01-30T03:32:42;97931.94;;;-5.59;100.00
48041;BME280;33815;48.386;11.738;2024-01-30T03:35:08;97953.03;;;-5.51;100.00
48041;BME280;33815;48.386;11.738;2024-01-30T03:37:33;97945.50;;;-5.60;100.00
48041;BME280;33815;48.386;11.738;2024-01-30T03:39:58;97948.75;;;-5.45;100.00
48041;BME280;33815;48.386;11.738;2024-01-30T03:42:24;97936.88;;;-5.45;100.00
48041;BME280;33815;48.386;11.738;2024-01-30T03:44:49;97918.50;;;-5.69;100.00
48041;BME280;33815;48.386;11.738;2024-01-30T03:47:18;97944.59;;;-5.53;100.00
48041;BME280;33815;48.386;11.738;2024-01-30T03:49:43;97955.56;;;-5.49;100.00
48041;BME280;33815;48.386;11.738;2024-01-30T03:52:08;97951.38;;;-5.55;100.00
48041;BME280;33815;48.386;11.738;2024-01-30T03:54:34;97948.06;;;-5.61;100.00
48041;BME280;33815;48.386;11.738;2024-01-30T03:56:59;97929.50;;;-5.66;100.00
48041;BME280;33815;48.386;11.738;2024-01-30T03:59:25;97913.50;;;-5.75;100.00
48041;BME280;33815;48.386;11.738;2024-01-30T04:01:50;97948.03;;;-5.60;100.00
48041;BME280;33815;48.386;11.738;2024-01-30T04:04:17;97954.03;;;-5.62;100.00
48041;BME280;33815;48.386;11.738;2024-01-30T04:06:42;97939.66;;;-5.68;100.00
48041;BME280;33815;48.386;11.738;2024-01-30T04:09:08;97928.78;;;-5.76;100.00
48041;BME280;33815;48.386;11.738;2024-01-30T04:11:33;97945.59;;;-5.68;100.00
48041;BME280;33815;48.386;11.738;2024-01-30T04:13:58;97958.34;;;-5.71;100.00
48041;BME280;33815;48.386;11.738;2024-01-30T04:16:23;97949.06;;;-5.75;100.00
48041;BME280;33815;48.386;11.738;2024-01-30T04:18:49;97922.19;;;-5.94;100.00
48041;BME280;33815;48.386;11.738;2024-01-30T04:21:14;97930.59;;;-5.92;100.00
48041;BME280;33815;48.386;11.738;2024-01-30T04:23:40;97952.53;;;-5.82;100.00
48041;BME280;33815;48.386;11.738;2024-01-30T04:26:06;97947.41;;;-5.79;100.00
48041;BME280;33815;48.386;11.738;2024-01-30T04:28:31;97942.38;;;-5.85;100.00
48041;BME280;33815;48.386;11.738;2024-01-30T04:30:56;97945.75;;;-5.81;100.00
48041;BME280;33815;48.386;11.738;2024-01-30T04:33:22;97930.56;;;-5.89;100.00
48041;BME280;33815;48.386;11.738;2024-01-30T04:35:47;97940.72;;;-5.86;100.00
48041;BME280;33815;48.386;11.738;2024-01-30T04:38:12;97953.38;;;-5.83;100.00
48041;BME280;33815;48.386;11.738;2024-01-30T04:40:39;97964.31;;;-5.75;100.00
48041;BME280;33815;48.386;11.738;2024-01-30T04:43:04;97942.38;;;-5.82;100.00
48041;BME280;33815;48.386;11.738;2024-01-30T04:45:30;97957.56;;;-5.79;100.00
48041;BME280;33815;48.386;11.738;2024-01-30T04:47:55;97949.19;;;-5.87;100.00
48041;BME280;33815;48.386;11.738;2024-01-30T04:50:20;97957.63;;;-5.87;100.00
48041;BME280;33815;48.386;11.738;2024-01-30T04:52:45;97962.69;;;-5.82;100.00
48041;BME280;33815;48.386;11.738;2024-01-30T04:55:11;97950.13;;;-5.96;100.00
48041;BME280;33815;48.386;11.738;2024-01-30T04:57:36;97953.47;;;-5.92;100.00
48041;BME280;33815;48.386;11.738;2024-01-30T05:00:01;97964.47;;;-5.90;100.00
48041;BME280;33815;48.386;11.738;2024-01-30T05:02:27;97951.75;;;-5.89;100.00
48041;BME280;33815;48.386;11.738;2024-01-30T05:04:52;97960.16;;;-5.85;100.00
48041;BME280;33815;48.386;11.738;2024-01-30T05:07:17;97967.81;;;-5.88;100.00
48041;BME280;33815;48.386;11.738;2024-01-30T05:09:43;97946.88;;;-6.09;100.00
48041;BME280;33815;48.386;11.738;2024-01-30T05:12:08;97954.47;;;-6.09;100.00
48041;BME280;33815;48.386;11.738;2024-01-30T05:14:34;97973.03;;;-5.97;100.00
48041;BME280;33815;48.386;11.738;2024-01-30T05:16:59;97976.44;;;-6.00;100.00
48041;BME280;33815;48.386;11.738;2024-01-30T05:19:24;97962.97;;;-6.10;100.00
48041;BME280;33815;48.386;11.738;2024-01-30T05:21:50;97957.94;;;-6.13;100.00
48041;BME280;33815;48.386;11.738;2024-01-30T05:24:15;97968.03;;;-6.07;100.00
48041;BME280;33815;48.386;11.738;2024-01-30T05:26:40;97951.19;;;-6.17;100.00
48041;BME280;33815;48.386;11.738;2024-01-30T05:29:06;97965.53;;;-6.11;100.00
48041;BME280;33815;48.386;11.738;2024-01-30T05:31:33;97952.06;;;-6.21;100.00
48041;BME280;33815;48.386;11.738;2024-01-30T05:33:59;97968.09;;;-6.13;100.00
48041;BME280;33815;48.386;11.738;2024-01-30T05:36:24;97954.59;;;-6.20;100.00
48041;BME280;33815;48.386;11.738;2024-01-30T05:38:49;97949.53;;;-6.21;100.00
48041;BME280;33815;48.386;11.738;2024-01-30T05:41:15;97971.44;;;-6.11;100.00
48041;BME280;33815;48.386;11.738;2024-01-30T05:43:40;97960.41;;;-6.08;100.00
48041;BME280;33815;48.386;11.738;2024-01-30T05:46:06;97962.13;;;-6.12;100.00
48041;BME280;33815;48.386;11.738;2024-01-30T05:48:31;97977.31;;;-6.06;100.00
48041;BME280;33815;48.386;11.738;2024-01-30T05:50:56;97957.94;;;-6.16;100.00
48041;BME280;33815;48.386;11.738;2024-01-30T05:53:22;97981.56;;;-6.09;100.00
48041;BME280;33815;48.386;11.738;2024-01-30T05:55:47;97978.22;;;-6.11;100.00
48041;BME280;33815;48.386;11.738;2024-01-30T05:58:12;97979.91;;;-6.12;100.00
48041;BME280;33815;48.386;11.738;2024-01-30T06:00:37;97979.91;;;-6.12;100.00
48041;BME280;33815;48.386;11.738;2024-01-30T06:03:03;97967.28;;;-6.20;100.00
48041;BME280;33815;48.386;11.738;2024-01-30T06:05:28;97980.75;;;-6.11;100.00
48041;BME280;33815;48.386;11.738;2024-01-30T06:07:53;97979.91;;;-6.12;100.00
48041;BME280;33815;48.386;11.738;2024-01-30T06:10:19;97969.00;;;-6.23;100.00
48041;BME280;33815;48.386;11.738;2024-01-30T06:12:44;97984.19;;;-6.15;100.00
48041;BME280;33815;48.386;11.738;2024-01-30T06:15:09;97985.84;;;-6.16;100.00
48041;BME280;33815;48.386;11.738;2024-01-30T06:17:35;97981.66;;;-6.17;100.00
48041;BME280;33815;48.386;11.738;2024-01-30T06:20:00;97986.69;;;-6.14;100.00
48041;BME280;33815;48.386;11.738;2024-01-30T06:22:25;97974.84;;;-6.13;100.00
48041;BME280;33815;48.386;11.738;2024-01-30T06:24:51;97995.97;;;-6.08;100.00
48041;BME280;33815;48.386;11.738;2024-01-30T06:27:16;97986.72;;;-6.17;100.00
48041;BME280;33815;48.386;11.738;2024-01-30T06:29:43;97983.34;;;-6.17;100.00
48041;BME280;33815;48.386;11.738;2024-01-30T06:32:08;97983.31;;;-6.13;100.00
48041;BME280;33815;48.386;11.738;2024-01-30T06:34:34;97997.63;;;-6.06;100.00
48041;BME280;33815;48.386;11.738;2024-01-30T06:36:59;98000.16;;;-6.06;100.00
48041;BME280;33815;48.386;11.738;2024-01-30T06:39:25;97991.75;;;-6.11;100.00
48041;BME280;33815;48.386;11.738;2024-01-30T06:41:51;98004.38;;;-6.05;100.00
48041;BME280;33815;48.386;11.738;2024-01-30T06:44:16;98009.47;;;-6.03;100.00
48041;BME280;33815;48.386;11.738;2024-01-30T06:46:41;98017.06;;;-6.01;100.00
48041;BME280;33815;48.386;11.738;2024-01-30T06:49:07;98000.16;;;-6.06;100.00
48041;BME280;33815;48.386;11.738;2024-01-30T06:51:32;98000.97;;;-6.02;100.00
48041;BME280;33815;48.386;11.738;2024-01-30T06:53:57;98016.09;;;-5.93;100.00
48041;BME280;33815;48.386;11.738;2024-01-30T06:56:23;98021.13;;;-5.87;100.00
48041;BME280;33815;48.386;11.738;2024-01-30T06:58:49;98017.72;;;-5.84;100.00
48041;BME280;33815;48.386;11.738;2024-01-30T07:01:15;98016.00;;;-5.83;100.00
48041;BME280;33815;48.386;11.738;2024-01-30T07:03:41;98030.34;;;-5.79;100.00
48041;BME280;33815;48.386;11.738;2024-01-30T07:06:07;98024.47;;;-5.83;100.00
48041;BME280;33815;48.386;11.738;2024-01-30T07:08:32;98016.88;;;-5.83;100.00
48041;BME280;33815;48.386;11.738;2024-01-30T07:10:57;98021.03;;;-5.77;100.00
48041;BME280;33815;48.386;11.738;2024-01-30T07:13:22;98022.72;;;-5.75;100.00
48041;BME280;33815;48.386;11.738;2024-01-30T07:15:48;98026.91;;;-5.69;100.00
48041;BME280;33815;48.386;11.738;2024-01-30T07:18:13;98015.00;;;-5.65;100.00
48041;BME280;33815;48.386;11.738;2024-01-30T07:20:39;97998.97;;;-5.71;100.00
48041;BME280;33815;48.386;11.738;2024-01-30T07:23:11;98007.34;;;-5.64;100.00
48041;BME280;33815;48.386;11.738;2024-01-30T07:25:39;98023.34;;;-5.51;100.00
48041;BME280;33815;48.386;11.738;2024-01-30T07:28:06;98008.13;;;-5.56;100.00
48041;BME280;33815;48.386;11.738;2024-01-30T07:30:31;98021.53;;;-5.43;100.00
48041;BME280;33815;48.386;11.738;2024-01-30T07:32:56;98007.13;;;-5.41;100.00
48041;BME280;33815;48.386;11.738;2024-01-30T07:35:22;98017.91;;;-5.19;100.00
48041;BME280;33815;48.386;11.738;2024-01-30T07:37:47;98028.91;;;-5.20;100.00
48041;BME280;33815;48.386;11.738;2024-01-30T07:40:12;98030.53;;;-5.14;100.00
48041;BME280;33815;48.386;11.738;2024-01-30T07:42:38;98027.00;;;-5.02;100.00
48041;BME280;33815;48.386;11.738;2024-01-30T07:45:03;98029.38;;;-4.88;100.00
48041;BME280;33815;48.386;11.738;2024-01-30T07:47:29;98024.09;;;-4.73;100.00
48041;BME280;33815;48.386;11.738;2024-01-30T07:49:54;98028.97;;;-4.54;100.00
48041;BME280;33815;48.386;11.738;2024-01-30T07:52:19;98032.88;;;-4.32;100.00
48041;BME280;33815;48.386;11.738;2024-01-30T07:54:45;98024.19;;;-4.20;100.00
48041;BME280;33815;48.386;11.738;2024-01-30T07:57:10;98029.94;;;-4.07;100.00
48041;BME280;33815;48.386;11.738;2024-01-30T07:59:35;98037.38;;;-3.94;100.00
48041;BME280;33815;48.386;11.738;2024-01-30T08:02:00;98042.16;;;-3.76;100.00
48041;BME280;33815;48.386;11.738;2024-01-30T08:04:26;98040.31;;;-3.65;100.00
48041;BME280;33815;48.386;11.738;2024-01-30T08:06:51;98040.03;;;-3.51;100.00
48041;BME280;33815;48.386;11.738;2024-01-30T08:09:16;98027.00;;;-3.35;100.00
48041;BME280;33815;48.386;11.738;2024-01-30T08:11:41;98035.03;;;-3.10;100.00
48041;BME280;33815;48.386;11.738;2024-01-30T08:14:07;98029.69;;;-2.98;100.00
48041;BME280;33815;48.386;11.738;2024-01-30T08:16:32;98021.94;;;-2.91;100.00
48041;BME280;33815;48.386;11.738;2024-01-30T08:18:57;98018.38;;;-2.84;100.00
48041;BME280;33815;48.386;11.738;2024-01-30T08:21:23;98031.66;;;-2.68;100.00
48041;BME280;33815;48.386;11.738;2024-01-30T08:23:48;98025.38;;;-2.53;100.00
48041;BME280;33815;48.386;11.738;2024-01-30T08:26:13;98013.38;;;-2.48;100.00
48041;BME280;33815;48.386;11.738;2024-01-30T08:28:38;98034.09;;;-2.23;100.00
48041;BME280;33815;48.386;11.738;2024-01-30T08:31:04;98037.19;;;-2.10;100.00
48041;BME280;33815;48.386;11.738;2024-01-30T08:33:29;98037.28;;;-1.79;100.00
48041;BME280;33815;48.386;11.738;2024-01-30T08:35:54;98020.91;;;-1.72;100.00
48041;BME280;33815;48.386;11.738;2024-01-30T08:38:19;98028.22;;;-1.58;100.00
48041;BME280;33815;48.386;11.738;2024-01-30T08:40:45;98018.34;;;-1.37;100.00
48041;BME280;33815;48.386;11.738;2024-01-30T08:43:10;98033.22;;;-1.20;100.00
48041;BME280;33815;48.386;11.738;2024-01-30T08:45:35;98029.63;;;-1.13;100.00
48041;BME280;33815;48.386;11.738;2024-01-30T08:48:01;98031.84;;;-1.00;100.00
48041;BME280;33815;48.386;11.738;2024-01-30T08:50:26;98025.53;;;-0.89;100.00
48041;BME280;33815;48.386;11.738;2024-01-30T08:52:51;98027.84;;;-0.79;100.00
48041;BME280;33815;48.386;11.738;2024-01-30T08:55:17;98017.34;;;-0.70;100.00
48041;BME280;33815;48.386;11.738;2024-01-30T08:57:42;98013.00;;;-0.68;100.00
48041;BME280;33815;48.386;11.738;2024-01-30T09:00:08;98023.03;;;-0.32;100.00
48041;BME280;33815;48.386;11.738;2024-01-30T09:02:34;98021.41;;;-0.08;100.00
48041;BME280;33815;48.386;11.738;2024-01-30T09:05:00;98020.19;;;0.04;100.00
48041;BME280;33815;48.386;11.738;2024-01-30T09:07:25;98019.28;;;0.32;100.00
48041;BME280;33815;48.386;11.738;2024-01-30T09:09:50;98011.81;;;0.51;100.00
48041;BME280;33815;48.386;11.738;2024-01-30T09:12:15;98026.25;;;0.79;100.00
48041;BME280;33815;48.386;11.738;2024-01-30T09:14:41;98028.00;;;1.02;100.00
48041;BME280;33815;48.386;11.738;2024-01-30T09:17:06;98040.41;;;1.14;100.00
48041;BME280;33815;48.386;11.738;2024-01-30T09:19:32;98038.16;;;1.29;100.00
48041;BME280;33815;48.386;11.738;2024-01-30T09:21:57;98039.81;;;1.53;100.00
48041;BME280;33815;48.386;11.738;2024-01-30T09:24:22;98025.41;;;1.49;100.00
48041;BME280;33815;48.386;11.738;2024-01-30T09:26:47;98040.38;;;1.84;100.00
48041;BME280;33815;48.386;11.738;2024-01-30T09:29:13;98021.19;;;1.93;100.00
48041;BME280;33815;48.386;11.738;2024-01-30T09:31:38;98035.72;;;2.36;100.00
48041;BME280;33815;48.386;11.738;2024-01-30T09:34:03;98041.59;;;2.40;100.00
48041;BME280;33815;48.386;11.738;2024-01-30T09:36:29;98035.97;;;2.51;100.00
48041;BME280;33815;48.386;11.738;2024-01-30T09:38:54;98037.84;;;2.47;100.00
48041;BME280;33815;48.386;11.738;2024-01-30T09:41:19;98043.63;;;2.94;100.00
48041;BME280;33815;48.386;11.738;2024-01-30T09:43:49;98048.63;;;2.97;100.00
48041;BME280;33815;48.386;11.738;2024-01-30T09:46:17;98043.03;;;2.87;100.00
48041;BME280;33815;48.386;11.738;2024-01-30T09:48:46;98040.34;;;2.90;100.00
48041;BME280;33815;48.386;11.738;2024-01-30T09:51:13;98037.69;;;3.31;100.00
48041;BME280;33815;48.386;11.738;2024-01-30T09:53:40;98025.34;;;3.38;100.00
48041;BME280;33815;48.386;11.738;2024-01-30T09:56:05;98037.09;;;3.82;100.00
48041;BME280;33815;48.386;11.738;2024-01-30T09:58:31;98031.22;;;4.15;100.00
48041;BME280;33815;48.386;11.738;2024-01-30T10:00:56;98044.38;;;4.27;100.00
48041;BME280;33815;48.386;11.738;2024-01-30T10:03:22;98027.66;;;4.35;97.64
48041;BME280;33815;48.386;11.738;2024-01-30T10:05:54;98026.78;;;4.53;94.06
48041;BME280;33815;48.386;11.738;2024-01-30T10:08:20;98028.13;;;4.43;94.39
48041;BME280;33815;48.386;11.738;2024-01-30T10:10:49;98025.75;;;4.56;93.15
48041;BME280;33815;48.386;11.738;2024-01-30T10:13:15;98025.06;;;4.70;91.48
48041;BME280;33815;48.386;11.738;2024-01-30T10:15:41;98007.75;;;4.72;88.99
48041;BME280;33815;48.386;11.738;2024-01-30T10:18:06;98020.00;;;5.02;87.50
48041;BME280;33815;48.386;11.738;2024-01-30T10:20:32;98025.72;;;4.57;87.96
48041;BME280;33815;48.386;11.738;2024-01-30T10:22:58;98019.72;;;5.08;87.82
48041;BME280;33815;48.386;11.738;2024-01-30T10:25:23;98000.94;;;4.87;88.60
48041;BME280;33815;48.386;11.738;2024-01-30T10:27:55;98016.63;;;4.84;90.29
48041;BME280;33815;48.386;11.738;2024-01-30T10:30:21;98001.44;;;5.11;90.43
48041;BME280;33815;48.386;11.738;2024-01-30T10:32:47;98014.06;;;5.49;88.87
48041;BME280;33815;48.386;11.738;2024-01-30T10:35:12;97996.53;;;5.38;88.05
48041;BME280;33815;48.386;11.738;2024-01-30T10:37:38;98005.72;;;5.76;87.83
48041;BME280;33815;48.386;11.738;2024-01-30T10:40:03;97995.03;;;6.28;84.47
48041;BME280;33815;48.386;11.738;2024-01-30T10:42:32;97995.22;;;6.25;85.72
48041;BME280;33815;48.386;11.738;2024-01-30T10:45:07;97993.69;;;6.51;81.15
48041;BME280;33815;48.386;11.738;2024-01-30T10:47:44;97985.00;;;6.53;81.12
48041;BME280;33815;48.386;11.738;2024-01-30T10:50:13;97989.53;;;6.63;80.91
48041;BME280;33815;48.386;11.738;2024-01-30T10:52:40;97976.88;;;6.73;82.07
48041;BME280;33815;48.386;11.738;2024-01-30T10:55:07;97954.00;;;7.23;81.24
48041;BME280;33815;48.386;11.738;2024-01-30T10:57:34;97963.53;;;7.08;76.28
48041;BME280;33815;48.386;11.738;2024-01-30T11:00:02;97966.97;;;6.80;77.57
48041;BME280;33815;48.386;11.738;2024-01-30T11:02:31;97963.00;;;7.03;79.79
48041;BME280;33815;48.386;11.738;2024-01-30T11:04:58;97960.47;;;7.30;81.29
48041;BME280;33815;48.386;11.738;2024-01-30T11:07:26;97955.22;;;7.59;79.32
48041;BME280;33815;48.386;11.738;2024-01-30T11:12:24;97948.91;;;8.03;72.58
48041;BME280;33815;48.386;11.738;2024-01-30T11:15:04;97935.44;;;7.84;75.01
48041;BME280;33815;48.386;11.738;2024-01-30T11:18:02;97945.03;;;8.62;68.96
48041;BME280;33815;48.386;11.738;2024-01-30T11:20:30;97925.25;;;8.34;69.48
48041;BME280;33815;48.386;11.738;2024-01-30T11:22:56;97929.13;;;8.54;70.12
48041;BME280;33815;48.386;11.738;2024-01-30T11:25:23;97928.72;;;8.73;69.38
48041;BME280;33815;48.386;11.738;2024-01-30T11:27:54;97929.34;;;8.89;63.97
48041;BME280;33815;48.386;11.738;2024-01-30T11:30:23;97929.13;;;8.67;64.80
48041;BME280;33815;48.386;11.738;2024-01-30T11:33:09;97928.94;;;8.70;67.20
48041;BME280;33815;48.386;11.738;2024-01-30T11:35:37;97927.28;;;8.69;66.61
48041;BME280;33815;48.386;11.738;2024-01-30T11:38:04;97919.75;;;8.38;66.88
48041;BME280;33815;48.386;11.738;2024-01-30T11:40:31;97907.78;;;8.23;66.86
48041;BME280;33815;48.386;11.738;2024-01-30T11:42:59;97920.09;;;8.85;65.23
48041;BME280;33815;48.386;11.738;2024-01-30T11:45:26;97894.72;;;8.76;59.71
48041;BME280;33815;48.386;11.738;2024-01-30T11:47:52;97906.38;;;8.70;61.20
48041;BME280;33815;48.386;11.738;2024-01-30T11:50:17;97902.09;;;8.69;59.02
48041;BME280;33815;48.386;11.738;2024-01-30T11:52:43;97904.00;;;9.04;59.18
48041;BME280;33815;48.386;11.738;2024-01-30T11:55:09;97900.75;;;8.89;59.21
48041;BME280;33815;48.386;11.738;2024-01-30T11:57:35;97904.81;;;9.18;61.36
48041;BME280;33815;48.386;11.738;2024-01-30T12:00:04;97893.38;;;9.20;61.15
48041;BME280;33815;48.386;11.738;2024-01-30T12:02:36;97890.16;;;9.41;58.83
48041;BME280;33815;48.386;11.738;2024-01-30T12:05:05;97877.66;;;9.46;58.69
48041;BME280;33815;48.386;11.738;2024-01-30T12:07:30;97893.53;;;9.78;60.58
48041;BME280;33815;48.386;11.738;2024-01-30T12:09:56;97879.72;;;9.89;57.79
48041;BME280;33815;48.386;11.738;2024-01-30T12:12:28;97882.91;;;9.93;59.15
48041;BME280;33815;48.386;11.738;2024-01-30T12:14:55;97883.22;;;9.77;58.65
48041;BME280;33815;48.386;11.738;2024-01-30T12:17:28;97876.81;;;9.70;59.92
48041;BME280;33815;48.386;11.738;2024-01-30T12:20:26;97879.41;;;9.70;61.81
48041;BME280;33815;48.386;11.738;2024-01-30T12:22:51;97881.53;;;10.00;61.53
48041;BME280;33815;48.386;11.738;2024-01-30T12:25:20;97867.44;;;10.14;59.09
48041;BME280;33815;48.386;11.738;2024-01-30T12:27:48;97872.59;;;10.27;58.54
48041;BME280;33815;48.386;11.738;2024-01-30T12:30:18;97856.47;;;10.33;57.36
48041;BME280;33815;48.386;11.738;2024-01-30T12:32:46;97844.34;;;10.09;55.90
48041;BME280;33815;48.386;11.738;2024-01-30T12:35:17;97847.88;;;9.97;55.09
48041;BME280;33815;48.386;11.738;2024-01-30T12:37:44;97855.16;;;10.16;55.24
48041;BME280;33815;48.386;11.738;2024-01-30T12:40:10;97849.31;;;10.01;54.70
48041;BME280;33815;48.386;11.738;2024-01-30T12:42:36;97849.47;;;10.22;54.93